createdAt,value
2023-05-14T00:01:52.249Z,101641.16
2023-05-14T00:06:55.083Z,101622.47
2023-05-14T00:11:59.429Z,101581.16
2023-05-14T00:17:01.889Z,101630.84
2023-05-14T00:22:04.277Z,101617.94
2023-05-14T00:27:07.378Z,101609.38
2023-05-14T00:32:10.265Z,101618.97
2023-05-14T00:37:13.242Z,101603.03
2023-05-14T00:42:15.671Z,101594.72
2023-05-14T00:47:18.268Z,101593.53
2023-05-14T00:52:22.898Z,101650.16
2023-05-14T00:57:25.846Z,101631.59
2023-05-14T01:02:28.719Z,101631.97
2023-05-14T01:07:46.610Z,101595.66
2023-05-14T01:13:09.822Z,101656.78
2023-05-14T01:18:16.972Z,101641.38
2023-05-14T01:23:20.993Z,101624.69
2023-05-14T01:28:35.120Z,101639.16
2023-05-14T01:33:41.684Z,101633.66
2023-05-14T01:38:46.633Z,101628.97
2023-05-14T01:43:49.640Z,101600.16
2023-05-14T01:48:54.116Z,101627.53
2023-05-14T01:53:57.197Z,101630.16
2023-05-14T01:59:00.352Z,101640.75
2023-05-14T02:04:02.781Z,101652.78
2023-05-14T02:09:05.319Z,101639.97
2023-05-14T02:14:08.465Z,101554.81
2023-05-14T02:19:11.474Z,101623.50
2023-05-14T02:24:34.348Z,101639.78
2023-05-14T02:29:36.624Z,101641.47
2023-05-14T02:34:39.568Z,101621.66
2023-05-14T02:39:43.030Z,101619.03
2023-05-14T02:44:46.062Z,101656.16
2023-05-14T02:49:48.494Z,101613.28
2023-05-14T02:54:50.847Z,101625.16
2023-05-14T02:59:53.817Z,101646.84
2023-05-14T03:04:56.341Z,101630.75
2023-05-14T03:10:00.538Z,101645.63
2023-05-14T03:15:05.431Z,101646.69
2023-05-14T03:20:08.740Z,101646.88
2023-05-14T03:25:11.556Z,101647.41
2023-05-14T03:30:14.115Z,101649.81
2023-05-14T03:35:17.874Z,101641.03
2023-05-14T03:40:21.864Z,101627.94
2023-05-14T03:45:27.209Z,101620.94
2023-05-14T03:50:29.722Z,101639.25
2023-05-14T03:55:32.124Z,101631.13
2023-05-14T04:00:35.332Z,101639.59
2023-05-14T04:05:37.579Z,101641.09
2023-05-14T04:10:41.316Z,101584.56
2023-05-14T04:15:44.357Z,101624.06
2023-05-14T04:20:47.808Z,101633.03
2023-05-14T04:25:52.173Z,101634.56
2023-05-14T04:30:55.677Z,101598.53
2023-05-14T04:35:58.122Z,101636.94
2023-05-14T04:41:00.620Z,101626.72
2023-05-14T04:46:05.138Z,101620.75
2023-05-14T04:51:08.826Z,101610.91
2023-05-14T04:56:12.791Z,101600.59
2023-05-14T05:01:16.012Z,101604.59
2023-05-14T05:06:19.541Z,101612.47
2023-05-14T05:11:21.924Z,101592.44
2023-05-14T05:16:24.871Z,101597.84
2023-05-14T05:21:27.915Z,101617.69
2023-05-14T05:26:32.558Z,101613.66
2023-05-14T05:31:36.933Z,101573.84
2023-05-14T05:36:39.894Z,101596.00
2023-05-14T05:41:42.709Z,101623.91
2023-05-14T05:46:47.233Z,101588.72
2023-05-14T05:51:51.580Z,101606.63
2023-05-14T05:56:54.600Z,101608.66
2023-05-14T06:01:57.520Z,101596.22
2023-05-14T06:07:00.410Z,101574.88
2023-05-14T06:12:04.072Z,101589.66
2023-05-14T06:17:07.773Z,101598.78
2023-05-14T06:22:10.689Z,101565.59
2023-05-14T06:27:13.931Z,101599.41
2023-05-14T06:32:16.439Z,101574.88
2023-05-14T06:37:18.850Z,101574.63
2023-05-14T06:42:21.456Z,101585.53
2023-05-14T06:47:25.502Z,101559.38
2023-05-14T06:52:28.898Z,101585.44
2023-05-14T06:57:32.366Z,101554.66
2023-05-14T07:02:36.914Z,101559.56
2023-05-14T07:07:39.850Z,101569.22
2023-05-14T07:12:44.338Z,101574.03
2023-05-14T07:17:47.244Z,101567.56
2023-05-14T07:22:53.363Z,101575.47
2023-05-14T07:27:57.201Z,101544.41
2023-05-14T07:33:00.316Z,101555.41
2023-05-14T07:38:03.324Z,101504.47
2023-05-14T07:43:06.162Z,101532.63
2023-05-14T07:48:09.612Z,101554.06
2023-05-14T07:53:11.998Z,101547.63
2023-05-14T07:58:15.118Z,101564.66
2023-05-14T08:03:18.093Z,101548.75
2023-05-14T08:08:20.888Z,101550.03
2023-05-14T08:13:23.182Z,101543.59
2023-05-14T08:18:26.756Z,101526.19
2023-05-14T08:23:29.156Z,101521.13
2023-05-14T08:28:31.656Z,101509.13
2023-05-14T08:33:34.186Z,101502.63
2023-05-14T08:38:36.551Z,101531.53
2023-05-14T08:43:45.642Z,101535.16
2023-05-14T08:48:57.984Z,101503.88
2023-05-14T08:54:03.347Z,101514.09
2023-05-14T08:59:06.477Z,101516.69
2023-05-14T09:04:09.968Z,101499.00
2023-05-14T09:09:13.380Z,101472.00
2023-05-14T09:14:16.264Z,101502.97
2023-05-14T09:19:21.626Z,101490.09
2023-05-14T09:24:26.487Z,101511.44
2023-05-14T09:29:30.001Z,101484.03
2023-05-14T09:34:35.331Z,101487.25
2023-05-14T09:39:41.472Z,101485.63
2023-05-14T09:44:43.864Z,101465.19
2023-05-14T09:49:49.846Z,101473.47
2023-05-14T09:54:53.543Z,101463.69
2023-05-14T09:59:57.434Z,101444.94
2023-05-14T10:05:02.942Z,101448.59
2023-05-14T10:10:09.473Z,101445.88
2023-05-14T10:15:23.259Z,101413.53
2023-05-14T10:20:27.934Z,101430.69
2023-05-14T10:25:31.382Z,101428.69
2023-05-14T10:30:34.658Z,101423.88
2023-05-14T10:35:58.325Z,101422.50
2023-05-14T10:41:12.165Z,101419.84
2023-05-14T10:46:15.195Z,101397.28
2023-05-14T10:51:21.506Z,101403.53
2023-05-14T10:56:24.738Z,101394.50
2023-05-14T11:01:29.680Z,101395.88
2023-05-14T11:06:33.314Z,101404.44
2023-05-14T11:11:37.691Z,101396.69
2023-05-14T11:16:41.632Z,101406.22
2023-05-14T11:21:45.745Z,101373.94
2023-05-14T11:26:48.772Z,101397.88
2023-05-14T11:31:51.160Z,101366.50
2023-05-14T11:36:53.928Z,101362.06
2023-05-14T11:42:20.375Z,101394.44
2023-05-14T11:47:23.224Z,101391.06
2023-05-14T11:52:26.069Z,101378.09
2023-05-14T11:57:31.377Z,101390.41
2023-05-14T12:02:34.620Z,101348.53
2023-05-14T12:07:37.045Z,101378.91
2023-05-14T12:12:40.018Z,101369.34
2023-05-14T12:17:44.233Z,101303.38
2023-05-14T12:22:46.977Z,101363.22
2023-05-14T12:27:49.847Z,101309.41
2023-05-14T12:32:53.329Z,101322.59
2023-05-14T12:37:56.589Z,101344.69
2023-05-14T12:42:59.440Z,101350.13
2023-05-14T12:48:02.997Z,101333.34
2023-05-14T12:53:05.922Z,101327.69
2023-05-14T12:58:08.285Z,101340.50
2023-05-14T13:03:11.248Z,101352.22
2023-05-14T13:08:18.466Z,101356.16
2023-05-14T13:13:21.101Z,101361.28
2023-05-14T13:18:23.349Z,101351.84
2023-05-14T13:23:27.422Z,101328.75
2023-05-14T13:28:30.238Z,101357.84
2023-05-14T13:33:38.055Z,101357.16
2023-05-14T13:38:42.406Z,101335.03
2023-05-14T13:43:45.399Z,101342.16
2023-05-14T13:48:48.317Z,101359.25
2023-05-14T13:53:52.090Z,101340.34
2023-05-14T13:58:54.790Z,101379.63
2023-05-14T14:03:59.216Z,101369.44
2023-05-14T14:09:02.144Z,101366.59
2023-05-14T14:14:04.768Z,101367.41
2023-05-14T14:19:07.354Z,101351.03
2023-05-14T14:24:10.675Z,101366.41
2023-05-14T14:29:13.857Z,101389.09
2023-05-14T14:34:16.656Z,101367.41
2023-05-14T14:39:21.313Z,101353.09
2023-05-14T14:44:24.171Z,101353.00
2023-05-14T14:49:29.359Z,101341.38
2023-05-14T14:54:32.787Z,101369.72
2023-05-14T14:59:36.428Z,101378.34
2023-05-14T15:04:39.027Z,101365.19
2023-05-14T15:09:41.904Z,101328.19
2023-05-14T15:14:47.280Z,101367.22
2023-05-14T15:19:50.033Z,101369.19
2023-05-14T15:24:53.242Z,101343.94
2023-05-14T15:29:56.439Z,101353.72
2023-05-14T15:34:58.871Z,101332.22
2023-05-14T15:40:01.865Z,101335.75
2023-05-14T15:45:06.196Z,101317.81
2023-05-14T15:50:10.538Z,101372.81
2023-05-14T15:55:12.952Z,101347.56
2023-05-14T16:00:16.593Z,101381.56
2023-05-14T16:05:19.288Z,101377.34
2023-05-14T16:10:22.749Z,101380.69
2023-05-14T16:15:26.142Z,101381.06
2023-05-14T16:20:29.082Z,101385.44
2023-05-14T16:25:32.228Z,101356.13
2023-05-14T16:30:35.277Z,101377.19
2023-05-14T16:35:37.753Z,101371.81
2023-05-14T16:40:40.066Z,101397.16
2023-05-14T16:45:42.983Z,101374.81
2023-05-14T16:50:46.207Z,101378.03
2023-05-14T16:55:48.565Z,101410.09
2023-05-14T17:00:51.090Z,101389.25
2023-05-14T17:05:54.522Z,101426.47
2023-05-14T17:10:57.216Z,101409.88
2023-05-14T17:16:00.485Z,101440.59
2023-05-14T17:21:05.028Z,101441.34
2023-05-14T17:26:07.589Z,101424.81
2023-05-14T17:31:10.083Z,101425.25
2023-05-14T17:36:12.364Z,101414.56
2023-05-14T17:41:15.004Z,101426.63
2023-05-14T17:46:17.527Z,101377.03
2023-05-14T17:51:19.881Z,101454.28
2023-05-14T17:56:23.415Z,101425.03
2023-05-14T18:01:26.199Z,101453.34
2023-05-14T18:06:28.731Z,101452.06
2023-05-14T18:11:33.919Z,101413.31
2023-05-14T18:16:37.953Z,101451.91
2023-05-14T18:21:40.205Z,101418.75
2023-05-14T18:26:42.716Z,101424.09
2023-05-14T18:31:45.061Z,101463.97
2023-05-14T18:36:47.712Z,101444.44
2023-05-14T18:41:50.077Z,101438.25
2023-05-14T18:46:53.510Z,101441.13
2023-05-14T18:51:56.128Z,101378.00
2023-05-14T18:56:58.972Z,101456.13
2023-05-14T19:02:02.182Z,101463.47
2023-05-14T19:07:05.443Z,101390.91
2023-05-14T19:12:08.405Z,101461.19
2023-05-14T19:17:11.729Z,101421.38
2023-05-14T19:22:14.246Z,101468.53
2023-05-14T19:27:17.736Z,101427.44
2023-05-14T19:32:20.198Z,101444.78
2023-05-14T19:37:23.309Z,101436.53
2023-05-14T19:42:25.897Z,101420.47
2023-05-14T19:47:29.316Z,101412.84
2023-05-14T19:52:32.504Z,101412.28
2023-05-14T19:57:35.323Z,101422.25
2023-05-14T20:02:40.855Z,101392.63
2023-05-14T20:07:43.950Z,101422.84
2023-05-14T20:12:46.299Z,101423.00
2023-05-14T20:17:48.780Z,101435.66
2023-05-14T20:22:51.157Z,101435.19
2023-05-14T20:27:53.643Z,101436.09
2023-05-14T20:32:56.380Z,101419.91
2023-05-14T20:37:59.780Z,101386.69
2023-05-14T20:43:02.215Z,101376.31
2023-05-14T20:48:10.398Z,101441.91
2023-05-14T20:53:13.179Z,101438.41
2023-05-14T20:58:16.171Z,101434.25
2023-05-14T21:03:18.680Z,101431.03
2023-05-14T21:08:21.847Z,101451.88
2023-05-14T21:13:24.303Z,101448.50
2023-05-14T21:18:31.407Z,101445.34
2023-05-14T21:23:34.927Z,101431.25
2023-05-14T21:28:37.310Z,101424.59
2023-05-14T21:33:41.064Z,101429.41
2023-05-14T21:38:43.964Z,101433.09
2023-05-14T21:43:47.125Z,101410.06
2023-05-14T21:48:50.094Z,101439.66
2023-05-14T21:53:52.999Z,101407.31
2023-05-14T21:58:56.292Z,101448.81
2023-05-14T22:03:59.075Z,101422.25
2023-05-14T22:09:03.114Z,101430.72
2023-05-14T22:14:06.573Z,101447.28
2023-05-14T22:19:08.894Z,101436.06
2023-05-14T22:24:11.943Z,101408.88
2023-05-14T22:29:15.425Z,101404.22
2023-05-14T22:34:17.846Z,101429.41
2023-05-14T22:39:21.161Z,101420.47
2023-05-14T22:44:25.795Z,101428.78
2023-05-14T22:49:29.863Z,101377.78
2023-05-14T22:54:32.270Z,101415.84
2023-05-14T22:59:34.638Z,101402.13
2023-05-14T23:04:37.088Z,101377.78
2023-05-14T23:09:39.513Z,101410.59
2023-05-14T23:14:42.804Z,101404.88
2023-05-14T23:19:46.322Z,101374.47
2023-05-14T23:24:48.765Z,101408.63
2023-05-14T23:29:51.356Z,101438.91
2023-05-14T23:34:54.234Z,101400.41
2023-05-14T23:39:57.168Z,101391.69
2023-05-14T23:44:59.444Z,101393.94
2023-05-14T23:50:02.301Z,101403.81
2023-05-14T23:55:07.463Z,101393.81
